sensor_id;sensor_type;location;lat;lon;timestamp;P1;durP1;ratioP1;P2;durP2;ratioP2
24381;SDS011;12502;50.678;7.172;2022-07-19T00:01:02;7.35;;;3.25;;
24381;SDS011;12502;50.678;7.172;2022-07-19T00:06:03;8.68;;;3.47;;
24381;SDS011;12502;50.678;7.172;2022-07-19T00:11:05;7.68;;;3.53;;
24381;SDS011;12502;50.678;7.172;2022-07-19T00:16:07;9.10;;;3.80;;
24381;SDS011;12502;50.678;7.172;2022-07-19T00:21:09;8.55;;;3.33;;
24381;SDS011;12502;50.678;7.172;2022-07-19T00:26:11;5.53;;;3.45;;
24381;SDS011;12502;50.678;7.172;2022-07-19T00:31:13;7.45;;;3.50;;
24381;SDS011;12502;50.678;7.172;2022-07-19T00:36:15;8.63;;;3.30;;
24381;SDS011;12502;50.678;7.172;2022-07-19T00:41:17;128.35;;;13.82;;
24381;SDS011;12502;50.678;7.172;2022-07-19T00:46:19;1999.90;;;999.90;;
24381;SDS011;12502;50.678;7.172;2022-07-19T00:51:22;917.30;;;90.10;;
24381;SDS011;12502;50.678;7.172;2022-07-19T00:56:25;1439.25;;;317.75;;
24381;SDS011;12502;50.678;7.172;2022-07-19T01:01:27;401.25;;;41.08;;
24381;SDS011;12502;50.678;7.172;2022-07-19T01:06:31;1336.22;;;99.40;;
24381;SDS011;12502;50.678;7.172;2022-07-19T01:11:33;948.00;;;136.63;;
24381;SDS011;12502;50.678;7.172;2022-07-19T01:16:35;935.65;;;92.72;;
24381;SDS011;12502;50.678;7.172;2022-07-19T01:21:37;1999.90;;;999.90;;
24381;SDS011;12502;50.678;7.172;2022-07-19T01:26:39;1999.90;;;999.90;;
24381;SDS011;12502;50.678;7.172;2022-07-19T01:31:41;1224.78;;;106.60;;
24381;SDS011;12502;50.678;7.172;2022-07-19T01:36:43;1189.22;;;94.13;;
24381;SDS011;12502;50.678;7.172;2022-07-19T01:41:45;1143.75;;;178.18;;
24381;SDS011;12502;50.678;7.172;2022-07-19T01:46:46;778.63;;;127.03;;
24381;SDS011;12502;50.678;7.172;2022-07-19T01:51:48;253.95;;;59.33;;
24381;SDS011;12502;50.678;7.172;2022-07-19T01:56:50;899.70;;;212.73;;
24381;SDS011;12502;50.678;7.172;2022-07-19T02:01:51;826.00;;;563.03;;
24381;SDS011;12502;50.678;7.172;2022-07-19T02:06:53;802.92;;;598.63;;
24381;SDS011;12502;50.678;7.172;2022-07-19T02:11:55;494.50;;;461.98;;
24381;SDS011;12502;50.678;7.172;2022-07-19T02:16:57;1999.90;;;999.90;;
24381;SDS011;12502;50.678;7.172;2022-07-19T02:21:59;1606.47;;;790.75;;
24381;SDS011;12502;50.678;7.172;2022-07-19T02:27:01;142.45;;;52.20;;
24381;SDS011;12502;50.678;7.172;2022-07-19T02:32:02;459.60;;;185.55;;
24381;SDS011;12502;50.678;7.172;2022-07-19T02:37:05;401.70;;;84.25;;
24381;SDS011;12502;50.678;7.172;2022-07-19T02:42:07;1999.90;;;390.25;;
24381;SDS011;12502;50.678;7.172;2022-07-19T02:47:09;1023.25;;;480.90;;
24381;SDS011;12502;50.678;7.172;2022-07-19T02:52:10;1340.10;;;427.23;;
24381;SDS011;12502;50.678;7.172;2022-07-19T02:57:12;1999.90;;;999.90;;
24381;SDS011;12502;50.678;7.172;2022-07-19T03:02:14;1999.90;;;999.90;;
24381;SDS011;12502;50.678;7.172;2022-07-19T03:07:16;10.00;;;4.10;;
24381;SDS011;12502;50.678;7.172;2022-07-19T03:12:17;7.57;;;4.03;;
24381;SDS011;12502;50.678;7.172;2022-07-19T03:17:20;13.93;;;4.00;;
24381;SDS011;12502;50.678;7.172;2022-07-19T03:22:22;9.05;;;3.55;;
24381;SDS011;12502;50.678;7.172;2022-07-19T03:27:24;6.10;;;3.33;;
24381;SDS011;12502;50.678;7.172;2022-07-19T03:32:26;9.88;;;3.72;;
24381;SDS011;12502;50.678;7.172;2022-07-19T03:37:28;9.55;;;3.83;;
24381;SDS011;12502;50.678;7.172;2022-07-19T03:42:30;13.25;;;4.28;;
24381;SDS011;12502;50.678;7.172;2022-07-19T03:47:31;8.73;;;4.43;;
24381;SDS011;12502;50.678;7.172;2022-07-19T03:52:33;8.50;;;4.03;;
24381;SDS011;12502;50.678;7.172;2022-07-19T03:57:35;9.75;;;4.43;;
24381;SDS011;12502;50.678;7.172;2022-07-19T04:02:37;8.38;;;4.15;;
24381;SDS011;12502;50.678;7.172;2022-07-19T04:07:39;11.32;;;3.90;;
24381;SDS011;12502;50.678;7.172;2022-07-19T04:12:41;9.23;;;4.15;;
24381;SDS011;12502;50.678;7.172;2022-07-19T04:17:43;9.00;;;3.80;;
24381;SDS011;12502;50.678;7.172;2022-07-19T04:22:44;8.90;;;3.90;;
24381;SDS011;12502;50.678;7.172;2022-07-19T04:27:46;10.85;;;3.95;;
24381;SDS011;12502;50.678;7.172;2022-07-19T04:32:48;6.70;;;3.75;;
24381;SDS011;12502;50.678;7.172;2022-07-19T04:37:50;7.30;;;3.58;;
24381;SDS011;12502;50.678;7.172;2022-07-19T04:42:52;9.85;;;3.78;;
24381;SDS011;12502;50.678;7.172;2022-07-19T04:47:53;11.80;;;4.05;;
24381;SDS011;12502;50.678;7.172;2022-07-19T04:52:55;9.05;;;3.80;;
24381;SDS011;12502;50.678;7.172;2022-07-19T04:57:57;9.60;;;4.07;;
24381;SDS011;12502;50.678;7.172;2022-07-19T05:02:59;7.80;;;4.05;;
24381;SDS011;12502;50.678;7.172;2022-07-19T05:08:01;8.63;;;3.90;;
24381;SDS011;12502;50.678;7.172;2022-07-19T05:13:03;8.05;;;3.50;;
24381;SDS011;12502;50.678;7.172;2022-07-19T05:18:04;10.70;;;4.13;;
24381;SDS011;12502;50.678;7.172;2022-07-19T05:23:06;8.30;;;4.25;;
24381;SDS011;12502;50.678;7.172;2022-07-19T05:28:08;10.88;;;3.92;;
24381;SDS011;12502;50.678;7.172;2022-07-19T05:33:10;11.65;;;4.03;;
24381;SDS011;12502;50.678;7.172;2022-07-19T05:38:12;5.60;;;3.65;;
24381;SDS011;12502;50.678;7.172;2022-07-19T05:43:14;9.57;;;3.53;;
24381;SDS011;12502;50.678;7.172;2022-07-19T05:48:16;8.38;;;3.92;;
24381;SDS011;12502;50.678;7.172;2022-07-19T05:53:18;7.82;;;4.20;;
24381;SDS011;12502;50.678;7.172;2022-07-19T05:58:20;5.95;;;3.53;;
24381;SDS011;12502;50.678;7.172;2022-07-19T06:03:22;10.20;;;3.60;;
24381;SDS011;12502;50.678;7.172;2022-07-19T06:08:25;7.50;;;3.58;;
24381;SDS011;12502;50.678;7.172;2022-07-19T06:13:27;8.98;;;3.42;;
24381;SDS011;12502;50.678;7.172;2022-07-19T06:18:46;8.75;;;3.83;;
24381;SDS011;12502;50.678;7.172;2022-07-19T06:23:48;8.05;;;3.38;;
24381;SDS011;12502;50.678;7.172;2022-07-19T06:28:50;6.90;;;3.35;;
24381;SDS011;12502;50.678;7.172;2022-07-19T06:33:52;9.32;;;3.40;;
24381;SDS011;12502;50.678;7.172;2022-07-19T06:38:54;15.88;;;3.22;;
24381;SDS011;12502;50.678;7.172;2022-07-19T06:43:56;7.78;;;3.83;;
24381;SDS011;12502;50.678;7.172;2022-07-19T06:48:58;7.40;;;3.28;;
24381;SDS011;12502;50.678;7.172;2022-07-19T06:53:59;10.23;;;3.03;;
24381;SDS011;12502;50.678;7.172;2022-07-19T06:59:01;6.55;;;3.05;;
24381;SDS011;12502;50.678;7.172;2022-07-19T07:04:03;7.22;;;2.83;;
24381;SDS011;12502;50.678;7.172;2022-07-19T07:09:05;12.38;;;3.38;;
24381;SDS011;12502;50.678;7.172;2022-07-19T07:14:07;6.07;;;3.13;;
24381;SDS011;12502;50.678;7.172;2022-07-19T07:19:09;5.10;;;3.08;;
24381;SDS011;12502;50.678;7.172;2022-07-19T07:24:11;7.82;;;3.25;;
24381;SDS011;12502;50.678;7.172;2022-07-19T07:29:13;8.90;;;2.78;;
24381;SDS011;12502;50.678;7.172;2022-07-19T07:34:14;6.20;;;2.67;;
24381;SDS011;12502;50.678;7.172;2022-07-19T07:39:16;13.55;;;3.05;;
24381;SDS011;12502;50.678;7.172;2022-07-19T07:44:18;7.55;;;3.28;;
24381;SDS011;12502;50.678;7.172;2022-07-19T07:49:20;9.07;;;3.15;;
24381;SDS011;12502;50.678;7.172;2022-07-19T07:54:22;13.25;;;3.17;;
24381;SDS011;12502;50.678;7.172;2022-07-19T07:59:24;4.50;;;2.92;;
24381;SDS011;12502;50.678;7.172;2022-07-19T08:04:26;7.55;;;2.85;;
24381;SDS011;12502;50.678;7.172;2022-07-19T08:09:28;7.32;;;3.08;;
24381;SDS011;12502;50.678;7.172;2022-07-19T08:14:30;6.50;;;2.80;;
24381;SDS011;12502;50.678;7.172;2022-07-19T08:19:32;6.07;;;3.10;;
24381;SDS011;12502;50.678;7.172;2022-07-19T08:24:34;5.97;;;3.15;;
24381;SDS011;12502;50.678;7.172;2022-07-19T08:29:36;8.95;;;3.33;;
24381;SDS011;12502;50.678;7.172;2022-07-19T08:34:38;6.97;;;3.10;;
24381;SDS011;12502;50.678;7.172;2022-07-19T08:39:40;8.55;;;3.45;;
24381;SDS011;12502;50.678;7.172;2022-07-19T08:44:41;6.97;;;3.25;;
24381;SDS011;12502;50.678;7.172;2022-07-19T08:49:44;6.63;;;2.90;;
24381;SDS011;12502;50.678;7.172;2022-07-19T08:54:46;5.00;;;2.78;;
24381;SDS011;12502;50.678;7.172;2022-07-19T08:59:49;7.70;;;2.60;;
24381;SDS011;12502;50.678;7.172;2022-07-19T09:05:00;8.52;;;2.80;;
24381;SDS011;12502;50.678;7.172;2022-07-19T09:15:18;14.57;;;2.15;;
24381;SDS011;12502;50.678;7.172;2022-07-19T09:20:26;4.65;;;2.30;;
24381;SDS011;12502;50.678;7.172;2022-07-19T09:25:35;4.03;;;2.03;;
24381;SDS011;12502;50.678;7.172;2022-07-19T09:30:43;5.35;;;2.25;;
24381;SDS011;12502;50.678;7.172;2022-07-19T09:35:50;4.72;;;2.30;;
24381;SDS011;12502;50.678;7.172;2022-07-19T09:40:54;4.80;;;2.00;;
24381;SDS011;12502;50.678;7.172;2022-07-19T09:51:39;3.22;;;1.75;;
24381;SDS011;12502;50.678;7.172;2022-07-19T09:56:43;6.38;;;1.90;;
24381;SDS011;12502;50.678;7.172;2022-07-19T10:01:46;6.13;;;2.20;;
24381;SDS011;12502;50.678;7.172;2022-07-19T10:06:50;6.53;;;2.05;;
24381;SDS011;12502;50.678;7.172;2022-07-19T10:11:53;7.27;;;2.17;;
24381;SDS011;12502;50.678;7.172;2022-07-19T10:16:58;6.95;;;2.17;;
24381;SDS011;12502;50.678;7.172;2022-07-19T10:22:22;8.25;;;2.50;;
24381;SDS011;12502;50.678;7.172;2022-07-19T10:32:28;7.07;;;2.20;;
24381;SDS011;12502;50.678;7.172;2022-07-19T10:37:41;4.95;;;2.38;;
24381;SDS011;12502;50.678;7.172;2022-07-19T10:43:02;6.05;;;2.35;;
24381;SDS011;12502;50.678;7.172;2022-07-19T10:48:09;3.90;;;2.10;;
24381;SDS011;12502;50.678;7.172;2022-07-19T10:58:50;3.33;;;2.10;;
24381;SDS011;12502;50.678;7.172;2022-07-19T11:04:42;6.73;;;2.37;;
24381;SDS011;12502;50.678;7.172;2022-07-19T11:09:38;6.50;;;2.20;;
24381;SDS011;12502;50.678;7.172;2022-07-19T11:14:43;7.80;;;2.15;;
24381;SDS011;12502;50.678;7.172;2022-07-19T11:25:13;6.00;;;2.50;;
24381;SDS011;12502;50.678;7.172;2022-07-19T11:35:17;3.45;;;2.28;;
24381;SDS011;12502;50.678;7.172;2022-07-19T11:40:20;8.93;;;2.60;;
24381;SDS011;12502;50.678;7.172;2022-07-19T11:45:25;5.32;;;2.83;;
24381;SDS011;12502;50.678;7.172;2022-07-19T11:50:27;3.65;;;2.67;;
24381;SDS011;12502;50.678;7.172;2022-07-19T11:55:34;6.25;;;2.75;;
24381;SDS011;12502;50.678;7.172;2022-07-19T12:00:38;5.65;;;3.00;;
24381;SDS011;12502;50.678;7.172;2022-07-19T12:05:55;7.68;;;3.10;;
24381;SDS011;12502;50.678;7.172;2022-07-19T12:11:17;4.82;;;2.90;;
24381;SDS011;12502;50.678;7.172;2022-07-19T12:16:24;9.90;;;3.00;;
24381;SDS011;12502;50.678;7.172;2022-07-19T12:21:27;4.55;;;2.95;;
24381;SDS011;12502;50.678;7.172;2022-07-19T12:26:43;4.47;;;2.47;;
24381;SDS011;12502;50.678;7.172;2022-07-19T12:32:02;5.95;;;2.70;;
24381;SDS011;12502;50.678;7.172;2022-07-19T12:37:27;4.93;;;2.70;;
24381;SDS011;12502;50.678;7.172;2022-07-19T12:42:34;6.68;;;2.45;;
24381;SDS011;12502;50.678;7.172;2022-07-19T12:47:38;4.68;;;2.40;;
24381;SDS011;12502;50.678;7.172;2022-07-19T12:52:40;4.45;;;2.50;;
24381;SDS011;12502;50.678;7.172;2022-07-19T12:57:42;4.95;;;2.40;;
24381;SDS011;12502;50.678;7.172;2022-07-19T13:02:44;4.15;;;2.60;;
24381;SDS011;12502;50.678;7.172;2022-07-19T13:07:47;6.80;;;2.50;;
24381;SDS011;12502;50.678;7.172;2022-07-19T13:12:49;4.03;;;2.50;;
24381;SDS011;12502;50.678;7.172;2022-07-19T13:17:51;4.05;;;2.60;;
24381;SDS011;12502;50.678;7.172;2022-07-19T13:23:00;7.00;;;2.28;;
24381;SDS011;12502;50.678;7.172;2022-07-19T13:28:02;6.85;;;2.00;;
24381;SDS011;12502;50.678;7.172;2022-07-19T13:33:04;6.75;;;2.55;;
24381;SDS011;12502;50.678;7.172;2022-07-19T13:38:09;3.97;;;2.25;;
24381;SDS011;12502;50.678;7.172;2022-07-19T13:43:11;8.85;;;2.60;;
24381;SDS011;12502;50.678;7.172;2022-07-19T13:48:13;7.25;;;2.53;;
24381;SDS011;12502;50.678;7.172;2022-07-19T13:53:14;4.95;;;3.67;;
24381;SDS011;12502;50.678;7.172;2022-07-19T13:58:16;5.60;;;3.08;;
24381;SDS011;12502;50.678;7.172;2022-07-19T14:03:18;4.72;;;2.70;;
24381;SDS011;12502;50.678;7.172;2022-07-19T14:08:21;5.55;;;2.83;;
24381;SDS011;12502;50.678;7.172;2022-07-19T14:13:23;5.28;;;2.75;;
24381;SDS011;12502;50.678;7.172;2022-07-19T14:18:35;6.75;;;2.90;;
24381;SDS011;12502;50.678;7.172;2022-07-19T14:23:37;8.13;;;2.95;;
24381;SDS011;12502;50.678;7.172;2022-07-19T14:28:39;9.40;;;3.30;;
24381;SDS011;12502;50.678;7.172;2022-07-19T14:33:40;7.22;;;3.20;;
24381;SDS011;12502;50.678;7.172;2022-07-19T14:38:44;6.07;;;3.40;;
24381;SDS011;12502;50.678;7.172;2022-07-19T14:43:46;10.65;;;3.90;;
24381;SDS011;12502;50.678;7.172;2022-07-19T14:48:48;8.75;;;3.92;;
24381;SDS011;12502;50.678;7.172;2022-07-19T14:53:51;5.32;;;3.15;;
24381;SDS011;12502;50.678;7.172;2022-07-19T14:58:52;8.43;;;3.97;;
24381;SDS011;12502;50.678;7.172;2022-07-19T15:03:54;8.65;;;3.70;;
24381;SDS011;12502;50.678;7.172;2022-07-19T15:08:56;9.13;;;3.42;;
24381;SDS011;12502;50.678;7.172;2022-07-19T15:13:58;5.50;;;3.35;;
24381;SDS011;12502;50.678;7.172;2022-07-19T15:19:00;4.33;;;3.10;;
24381;SDS011;12502;50.678;7.172;2022-07-19T15:24:02;5.80;;;3.10;;
24381;SDS011;12502;50.678;7.172;2022-07-19T15:29:05;4.13;;;2.50;;
24381;SDS011;12502;50.678;7.172;2022-07-19T15:34:07;5.15;;;3.00;;
24381;SDS011;12502;50.678;7.172;2022-07-19T15:39:08;7.22;;;3.17;;
24381;SDS011;12502;50.678;7.172;2022-07-19T15:44:10;5.80;;;2.90;;
24381;SDS011;12502;50.678;7.172;2022-07-19T15:49:12;6.90;;;3.10;;
24381;SDS011;12502;50.678;7.172;2022-07-19T15:54:14;5.72;;;3.05;;
24381;SDS011;12502;50.678;7.172;2022-07-19T15:59:16;8.30;;;3.30;;
24381;SDS011;12502;50.678;7.172;2022-07-19T16:04:18;6.10;;;2.83;;
24381;SDS011;12502;50.678;7.172;2022-07-19T16:09:20;6.68;;;2.90;;
24381;SDS011;12502;50.678;7.172;2022-07-19T16:14:22;6.95;;;2.80;;
24381;SDS011;12502;50.678;7.172;2022-07-19T16:19:23;4.68;;;2.70;;
24381;SDS011;12502;50.678;7.172;2022-07-19T16:24:25;4.53;;;2.70;;
24381;SDS011;12502;50.678;7.172;2022-07-19T16:29:27;4.40;;;3.03;;
24381;SDS011;12502;50.678;7.172;2022-07-19T16:34:28;9.57;;;3.65;;
24381;SDS011;12502;50.678;7.172;2022-07-19T16:39:30;7.85;;;2.70;;
24381;SDS011;12502;50.678;7.172;2022-07-19T16:44:39;7.70;;;2.60;;
24381;SDS011;12502;50.678;7.172;2022-07-19T16:49:41;6.78;;;2.70;;
24381;SDS011;12502;50.678;7.172;2022-07-19T16:54:43;4.10;;;2.30;;
24381;SDS011;12502;50.678;7.172;2022-07-19T16:59:44;5.65;;;2.80;;
24381;SDS011;12502;50.678;7.172;2022-07-19T17:04:46;4.32;;;3.17;;
24381;SDS011;12502;50.678;7.172;2022-07-19T17:09:48;6.00;;;3.05;;
24381;SDS011;12502;50.678;7.172;2022-07-19T17:15:10;6.60;;;2.70;;
24381;SDS011;12502;50.678;7.172;2022-07-19T17:20:12;6.63;;;3.00;;
24381;SDS011;12502;50.678;7.172;2022-07-19T17:25:14;6.20;;;2.72;;
24381;SDS011;12502;50.678;7.172;2022-07-19T17:30:20;7.10;;;2.47;;
24381;SDS011;12502;50.678;7.172;2022-07-19T17:35:22;4.63;;;2.53;;
24381;SDS011;12502;50.678;7.172;2022-07-19T17:40:24;5.10;;;3.00;;
24381;SDS011;12502;50.678;7.172;2022-07-19T17:45:27;4.93;;;2.70;;
24381;SDS011;12502;50.678;7.172;2022-07-19T17:50:29;6.28;;;2.55;;
24381;SDS011;12502;50.678;7.172;2022-07-19T17:55:31;8.07;;;2.92;;
24381;SDS011;12502;50.678;7.172;2022-07-19T18:00:33;3.97;;;3.00;;
24381;SDS011;12502;50.678;7.172;2022-07-19T18:05:35;4.18;;;2.70;;
24381;SDS011;12502;50.678;7.172;2022-07-19T18:15:40;5.07;;;2.90;;
24381;SDS011;12502;50.678;7.172;2022-07-19T18:21:02;8.23;;;2.88;;
24381;SDS011;12502;50.678;7.172;2022-07-19T18:26:05;6.63;;;2.60;;
24381;SDS011;12502;50.678;7.172;2022-07-19T18:31:07;6.07;;;3.00;;
24381;SDS011;12502;50.678;7.172;2022-07-19T18:36:09;3.97;;;2.70;;
24381;SDS011;12502;50.678;7.172;2022-07-19T18:41:11;9.10;;;3.15;;
24381;SDS011;12502;50.678;7.172;2022-07-19T18:46:12;7.47;;;2.83;;
24381;SDS011;12502;50.678;7.172;2022-07-19T18:51:14;4.43;;;2.75;;
24381;SDS011;12502;50.678;7.172;2022-07-19T18:56:20;7.00;;;2.97;;
24381;SDS011;12502;50.678;7.172;2022-07-19T19:01:22;7.03;;;3.47;;
24381;SDS011;12502;50.678;7.172;2022-07-19T19:06:24;6.82;;;3.28;;
24381;SDS011;12502;50.678;7.172;2022-07-19T19:11:31;6.20;;;3.40;;
24381;SDS011;12502;50.678;7.172;2022-07-19T19:16:33;8.40;;;3.70;;
24381;SDS011;12502;50.678;7.172;2022-07-19T19:21:35;21.50;;;5.43;;
24381;SDS011;12502;50.678;7.172;2022-07-19T19:26:37;11.60;;;5.53;;
24381;SDS011;12502;50.678;7.172;2022-07-19T19:31:40;9.02;;;5.47;;
24381;SDS011;12502;50.678;7.172;2022-07-19T19:36:42;9.60;;;4.68;;
24381;SDS011;12502;50.678;7.172;2022-07-19T19:41:44;11.18;;;4.88;;
24381;SDS011;12502;50.678;7.172;2022-07-19T19:46:46;11.00;;;5.15;;
24381;SDS011;12502;50.678;7.172;2022-07-19T19:51:51;8.05;;;4.82;;
24381;SDS011;12502;50.678;7.172;2022-07-19T19:56:52;13.75;;;4.97;;
24381;SDS011;12502;50.678;7.172;2022-07-19T20:01:55;10.85;;;5.60;;
24381;SDS011;12502;50.678;7.172;2022-07-19T20:06:58;13.70;;;5.40;;
24381;SDS011;12502;50.678;7.172;2022-07-19T20:12:01;8.93;;;4.63;;
24381;SDS011;12502;50.678;7.172;2022-07-19T20:17:03;11.10;;;5.28;;
24381;SDS011;12502;50.678;7.172;2022-07-19T20:22:05;16.50;;;5.20;;
24381;SDS011;12502;50.678;7.172;2022-07-19T20:27:08;9.27;;;4.75;;
24381;SDS011;12502;50.678;7.172;2022-07-19T20:32:10;11.43;;;5.07;;
24381;SDS011;12502;50.678;7.172;2022-07-19T20:37:12;11.82;;;5.20;;
24381;SDS011;12502;50.678;7.172;2022-07-19T20:42:14;6.45;;;5.00;;
24381;SDS011;12502;50.678;7.172;2022-07-19T20:47:16;10.60;;;4.90;;
24381;SDS011;12502;50.678;7.172;2022-07-19T20:52:18;8.27;;;4.72;;
24381;SDS011;12502;50.678;7.172;2022-07-19T20:57:20;13.05;;;4.55;;
24381;SDS011;12502;50.678;7.172;2022-07-19T21:02:21;8.20;;;5.05;;
24381;SDS011;12502;50.678;7.172;2022-07-19T21:07:23;6.57;;;4.78;;
24381;SDS011;12502;50.678;7.172;2022-07-19T21:12:45;7.40;;;4.25;;
24381;SDS011;12502;50.678;7.172;2022-07-19T21:17:47;10.77;;;4.32;;
24381;SDS011;12502;50.678;7.172;2022-07-19T21:22:51;9.67;;;4.50;;
24381;SDS011;12502;50.678;7.172;2022-07-19T21:27:53;9.93;;;4.78;;
24381;SDS011;12502;50.678;7.172;2022-07-19T21:32:55;9.70;;;5.05;;
24381;SDS011;12502;50.678;7.172;2022-07-19T21:37:56;9.52;;;5.28;;
24381;SDS011;12502;50.678;7.172;2022-07-19T21:42:58;5.75;;;5.10;;
24381;SDS011;12502;50.678;7.172;2022-07-19T21:48:00;11.70;;;5.07;;
24381;SDS011;12502;50.678;7.172;2022-07-19T21:53:02;7.90;;;5.05;;
24381;SDS011;12502;50.678;7.172;2022-07-19T21:58:04;9.13;;;5.03;;
24381;SDS011;12502;50.678;7.172;2022-07-19T22:03:06;6.82;;;4.80;;
24381;SDS011;12502;50.678;7.172;2022-07-19T22:08:08;14.38;;;5.60;;
24381;SDS011;12502;50.678;7.172;2022-07-19T22:13:10;6.07;;;5.07;;
24381;SDS011;12502;50.678;7.172;2022-07-19T22:18:12;8.93;;;5.50;;
24381;SDS011;12502;50.678;7.172;2022-07-19T22:23:18;10.73;;;5.40;;
24381;SDS011;12502;50.678;7.172;2022-07-19T22:28:19;9.68;;;6.00;;
24381;SDS011;12502;50.678;7.172;2022-07-19T22:33:21;7.68;;;4.93;;
24381;SDS011;12502;50.678;7.172;2022-07-19T22:38:23;11.48;;;4.80;;
24381;SDS011;12502;50.678;7.172;2022-07-19T22:43:25;9.00;;;4.90;;
24381;SDS011;12502;50.678;7.172;2022-07-19T22:48:26;11.20;;;4.82;;
24381;SDS011;12502;50.678;7.172;2022-07-19T22:53:28;7.30;;;4.75;;
24381;SDS011;12502;50.678;7.172;2022-07-19T22:58:30;11.55;;;5.43;;
24381;SDS011;12502;50.678;7.172;2022-07-19T23:03:32;7.90;;;4.70;;
24381;SDS011;12502;50.678;7.172;2022-07-19T23:08:34;8.40;;;4.60;;
24381;SDS011;12502;50.678;7.172;2022-07-19T23:13:36;8.55;;;4.38;;
24381;SDS011;12502;50.678;7.172;2022-07-19T23:18:39;8.10;;;4.25;;
24381;SDS011;12502;50.678;7.172;2022-07-19T23:23:40;7.95;;;4.57;;
24381;SDS011;12502;50.678;7.172;2022-07-19T23:28:42;10.63;;;4.72;;
24381;SDS011;12502;50.678;7.172;2022-07-19T23:33:44;9.38;;;4.93;;
24381;SDS011;12502;50.678;7.172;2022-07-19T23:38:46;7.15;;;4.60;;
24381;SDS011;12502;50.678;7.172;2022-07-19T23:43:48;8.13;;;5.00;;
24381;SDS011;12502;50.678;7.172;2022-07-19T23:48:51;6.53;;;4.63;;
24381;SDS011;12502;50.678;7.172;2022-07-19T23:53:54;9.90;;;4.78;;
24381;SDS011;12502;50.678;7.172;2022-07-19T23:58:55;7.60;;;4.70;;
